sensor_id;sensor_type;location;lat;lon;timestamp;P1;durP1;ratioP1;P2;durP2;ratioP2
40453;SDS011;26160;51.858;4.398;2023-01-28T07:39:12;8.33;;;6.20;;
40453;SDS011;26160;51.858;4.398;2023-01-28T07:42:05;7.10;;;6.40;;
40453;SDS011;26160;51.858;4.398;2023-01-28T08:04:21;7.83;;;6.60;;
40453;SDS011;26160;51.858;4.398;2023-01-28T08:17:37;12.03;;;9.23;;
40453;SDS011;26160;51.858;4.398;2023-01-28T08:20:12;13.27;;;8.80;;
40453;SDS011;26160;51.858;4.398;2023-01-28T08:23:18;9.93;;;8.37;;
40453;SDS011;26160;51.858;4.398;2023-01-28T08:26:55;11.67;;;8.93;;
40453;SDS011;26160;51.858;4.398;2023-01-28T08:29:42;11.43;;;8.50;;
40453;SDS011;26160;51.858;4.398;2023-01-28T08:32:09;13.17;;;8.73;;
40453;SDS011;26160;51.858;4.398;2023-01-28T09:47:44;7.87;;;7.00;;
40453;SDS011;26160;51.858;4.398;2023-01-28T10:06:44;10.50;;;8.07;;
40453;SDS011;26160;51.858;4.398;2023-01-28T11:29:39;13.30;;;6.90;;
40453;SDS011;26160;51.858;4.398;2023-01-28T11:34:47;9.43;;;7.50;;
40453;SDS011;26160;51.858;4.398;2023-01-28T12:56:39;7.87;;;5.33;;
40453;SDS011;26160;51.858;4.398;2023-01-28T12:59:51;8.87;;;6.00;;
40453;SDS011;26160;51.858;4.398;2023-01-28T13:02:28;6.87;;;5.70;;
40453;SDS011;26160;51.858;4.398;2023-01-28T14:08:21;9.43;;;6.23;;
40453;SDS011;26160;51.858;4.398;2023-01-28T14:11:06;10.70;;;6.57;;
40453;SDS011;26160;51.858;4.398;2023-01-28T14:19:25;6.73;;;4.57;;
40453;SDS011;26160;51.858;4.398;2023-01-28T14:22:08;8.07;;;5.30;;
40453;SDS011;26160;51.858;4.398;2023-01-28T14:24:38;10.43;;;7.37;;
40453;SDS011;26160;51.858;4.398;2023-01-28T14:32:47;9.00;;;6.20;;
40453;SDS011;26160;51.858;4.398;2023-01-28T14:35:33;11.37;;;6.80;;
40453;SDS011;26160;51.858;4.398;2023-01-28T14:38:05;7.90;;;6.40;;
40453;SDS011;26160;51.858;4.398;2023-01-28T14:40:37;8.10;;;7.00;;
40453;SDS011;26160;51.858;4.398;2023-01-28T14:43:05;9.43;;;7.00;;
40453;SDS011;26160;51.858;4.398;2023-01-28T14:57:26;6.00;;;4.30;;
40453;SDS011;26160;51.858;4.398;2023-01-28T14:59:58;7.30;;;5.57;;
40453;SDS011;26160;51.858;4.398;2023-01-28T15:02:27;9.77;;;7.30;;
40453;SDS011;26160;51.858;4.398;2023-01-28T15:04:54;9.50;;;6.93;;
40453;SDS011;26160;51.858;4.398;2023-01-28T15:07:36;9.07;;;6.97;;
40453;SDS011;26160;51.858;4.398;2023-01-28T15:10:06;9.10;;;7.33;;
40453;SDS011;26160;51.858;4.398;2023-01-28T15:12:42;9.80;;;7.73;;
40453;SDS011;26160;51.858;4.398;2023-01-28T15:15:32;9.70;;;7.80;;
40453;SDS011;26160;51.858;4.398;2023-01-28T15:18:14;8.97;;;7.30;;
40453;SDS011;26160;51.858;4.398;2023-01-28T15:20:51;9.20;;;7.30;;
40453;SDS011;26160;51.858;4.398;2023-01-28T15:23:22;8.27;;;6.95;;
40453;SDS011;26160;51.858;4.398;2023-01-28T15:25:56;8.90;;;7.33;;
40453;SDS011;26160;51.858;4.398;2023-01-28T15:28:26;9.63;;;6.93;;
40453;SDS011;26160;51.858;4.398;2023-01-28T15:30:56;10.00;;;7.43;;
40453;SDS011;26160;51.858;4.398;2023-01-28T15:33:22;11.27;;;7.47;;
40453;SDS011;26160;51.858;4.398;2023-01-28T15:35:49;8.90;;;7.47;;
40453;SDS011;26160;51.858;4.398;2023-01-28T15:38:19;20.07;;;9.17;;
40453;SDS011;26160;51.858;4.398;2023-01-28T15:40:51;8.97;;;7.60;;
40453;SDS011;26160;51.858;4.398;2023-01-28T15:43:33;10.13;;;8.33;;
40453;SDS011;26160;51.858;4.398;2023-01-28T15:46:02;8.97;;;7.40;;
40453;SDS011;26160;51.858;4.398;2023-01-28T15:48:32;12.53;;;8.87;;
40453;SDS011;26160;51.858;4.398;2023-01-28T15:51:04;10.50;;;7.97;;
40453;SDS011;26160;51.858;4.398;2023-01-28T15:53:40;16.17;;;9.77;;
40453;SDS011;26160;51.858;4.398;2023-01-28T15:56:12;10.63;;;8.83;;
40453;SDS011;26160;51.858;4.398;2023-01-28T15:58:40;10.70;;;8.97;;
40453;SDS011;26160;51.858;4.398;2023-01-28T16:03:33;10.63;;;8.27;;
40453;SDS011;26160;51.858;4.398;2023-01-28T16:08:51;13.57;;;8.27;;
40453;SDS011;26160;51.858;4.398;2023-01-28T16:11:29;10.80;;;8.67;;
40453;SDS011;26160;51.858;4.398;2023-01-28T16:13:59;11.30;;;8.47;;
40453;SDS011;26160;51.858;4.398;2023-01-28T16:16:27;13.73;;;9.50;;
40453;SDS011;26160;51.858;4.398;2023-01-28T16:19:01;12.63;;;8.90;;
40453;SDS011;26160;51.858;4.398;2023-01-28T16:21:33;13.00;;;9.47;;
40453;SDS011;26160;51.858;4.398;2023-01-28T16:24:03;10.97;;;9.00;;
40453;SDS011;26160;51.858;4.398;2023-01-28T16:27:00;13.77;;;9.63;;
40453;SDS011;26160;51.858;4.398;2023-01-28T16:29:29;12.97;;;9.43;;
40453;SDS011;26160;51.858;4.398;2023-01-28T16:34:27;11.87;;;10.00;;
40453;SDS011;26160;51.858;4.398;2023-01-28T16:36:57;12.70;;;9.37;;
40453;SDS011;26160;51.858;4.398;2023-01-28T16:39:24;13.53;;;10.30;;
40453;SDS011;26160;51.858;4.398;2023-01-28T16:41:54;13.20;;;10.53;;
40453;SDS011;26160;51.858;4.398;2023-01-28T16:44:21;14.53;;;11.40;;
40453;SDS011;26160;51.858;4.398;2023-01-28T16:46:47;15.63;;;10.57;;
40453;SDS011;26160;51.858;4.398;2023-01-28T16:49:13;14.87;;;11.10;;
40453;SDS011;26160;51.858;4.398;2023-01-28T16:51:40;13.03;;;9.93;;
40453;SDS011;26160;51.858;4.398;2023-01-28T16:54:12;16.77;;;11.03;;
40453;SDS011;26160;51.858;4.398;2023-01-28T16:56:40;14.03;;;11.00;;
40453;SDS011;26160;51.858;4.398;2023-01-28T16:59:08;12.93;;;9.80;;
40453;SDS011;26160;51.858;4.398;2023-01-28T17:01:35;12.93;;;9.87;;
40453;SDS011;26160;51.858;4.398;2023-01-28T17:04:07;16.60;;;10.85;;
40453;SDS011;26160;51.858;4.398;2023-01-28T17:06:34;14.67;;;10.90;;
40453;SDS011;26160;51.858;4.398;2023-01-28T17:09:06;13.43;;;11.02;;
40453;SDS011;26160;51.858;4.398;2023-01-28T17:11:32;13.83;;;10.87;;
40453;SDS011;26160;51.858;4.398;2023-01-28T17:13:59;14.83;;;11.37;;
40453;SDS011;26160;51.858;4.398;2023-01-28T17:16:26;16.00;;;12.03;;
40453;SDS011;26160;51.858;4.398;2023-01-28T17:18:53;16.63;;;12.97;;
40453;SDS011;26160;51.858;4.398;2023-01-28T17:21:20;16.80;;;12.80;;
40453;SDS011;26160;51.858;4.398;2023-01-28T17:23:46;16.33;;;12.07;;
40453;SDS011;26160;51.858;4.398;2023-01-28T17:26:13;18.07;;;12.50;;
40453;SDS011;26160;51.858;4.398;2023-01-28T17:28:40;16.07;;;11.90;;
40453;SDS011;26160;51.858;4.398;2023-01-28T17:31:12;17.33;;;13.03;;
40453;SDS011;26160;51.858;4.398;2023-01-28T17:33:41;18.10;;;13.70;;
40453;SDS011;26160;51.858;4.398;2023-01-28T17:36:08;16.83;;;13.47;;
40453;SDS011;26160;51.858;4.398;2023-01-28T17:38:34;18.10;;;13.23;;
40453;SDS011;26160;51.858;4.398;2023-01-28T17:41:10;14.77;;;11.53;;
40453;SDS011;26160;51.858;4.398;2023-01-28T17:43:40;16.77;;;12.87;;
40453;SDS011;26160;51.858;4.398;2023-01-28T17:46:11;16.40;;;12.83;;
40453;SDS011;26160;51.858;4.398;2023-01-28T17:48:39;16.50;;;12.63;;
40453;SDS011;26160;51.858;4.398;2023-01-28T17:51:05;16.83;;;12.43;;
40453;SDS011;26160;51.858;4.398;2023-01-28T17:53:32;19.40;;;12.23;;
40453;SDS011;26160;51.858;4.398;2023-01-28T17:55:58;17.17;;;13.03;;
40453;SDS011;26160;51.858;4.398;2023-01-28T17:58:24;16.40;;;12.90;;
40453;SDS011;26160;51.858;4.398;2023-01-28T18:00:50;21.97;;;13.97;;
40453;SDS011;26160;51.858;4.398;2023-01-28T18:03:17;19.17;;;14.23;;
40453;SDS011;26160;51.858;4.398;2023-01-28T18:05:43;18.53;;;13.70;;
40453;SDS011;26160;51.858;4.398;2023-01-28T18:08:09;17.00;;;13.37;;
40453;SDS011;26160;51.858;4.398;2023-01-28T18:10:35;19.20;;;13.70;;
40453;SDS011;26160;51.858;4.398;2023-01-28T18:13:02;18.13;;;12.97;;
40453;SDS011;26160;51.858;4.398;2023-01-28T18:15:28;17.47;;;13.73;;
40453;SDS011;26160;51.858;4.398;2023-01-28T18:17:54;18.40;;;13.70;;
40453;SDS011;26160;51.858;4.398;2023-01-28T18:20:20;18.63;;;13.70;;
40453;SDS011;26160;51.858;4.398;2023-01-28T18:22:47;17.77;;;13.93;;
40453;SDS011;26160;51.858;4.398;2023-01-28T18:25:14;18.90;;;14.73;;
40453;SDS011;26160;51.858;4.398;2023-01-28T18:27:42;16.23;;;13.57;;
40453;SDS011;26160;51.858;4.398;2023-01-28T18:30:08;17.13;;;13.37;;
40453;SDS011;26160;51.858;4.398;2023-01-28T18:32:35;16.90;;;13.47;;
40453;SDS011;26160;51.858;4.398;2023-01-28T18:35:02;19.90;;;14.10;;
40453;SDS011;26160;51.858;4.398;2023-01-28T18:37:31;20.07;;;13.87;;
40453;SDS011;26160;51.858;4.398;2023-01-28T18:39:57;18.57;;;13.57;;
40453;SDS011;26160;51.858;4.398;2023-01-28T18:42:23;20.60;;;14.77;;
40453;SDS011;26160;51.858;4.398;2023-01-28T18:44:49;19.00;;;14.47;;
40453;SDS011;26160;51.858;4.398;2023-01-28T18:47:15;18.33;;;13.07;;
40453;SDS011;26160;51.858;4.398;2023-01-28T18:49:42;16.57;;;13.43;;
40453;SDS011;26160;51.858;4.398;2023-01-28T18:52:10;18.13;;;13.07;;
40453;SDS011;26160;51.858;4.398;2023-01-28T18:54:36;20.30;;;14.47;;
40453;SDS011;26160;51.858;4.398;2023-01-28T18:57:02;16.77;;;13.10;;
40453;SDS011;26160;51.858;4.398;2023-01-28T18:59:33;21.40;;;15.07;;
40453;SDS011;26160;51.858;4.398;2023-01-28T19:01:59;18.40;;;13.57;;
40453;SDS011;26160;51.858;4.398;2023-01-28T19:04:26;22.27;;;15.97;;
40453;SDS011;26160;51.858;4.398;2023-01-28T19:06:56;19.40;;;12.90;;
40453;SDS011;26160;51.858;4.398;2023-01-28T19:09:22;20.00;;;16.17;;
40453;SDS011;26160;51.858;4.398;2023-01-28T19:11:49;21.43;;;14.20;;
40453;SDS011;26160;51.858;4.398;2023-01-28T19:14:15;20.50;;;15.47;;
40453;SDS011;26160;51.858;4.398;2023-01-28T19:16:42;19.70;;;14.27;;
40453;SDS011;26160;51.858;4.398;2023-01-28T19:19:08;19.37;;;14.17;;
40453;SDS011;26160;51.858;4.398;2023-01-28T19:21:35;22.07;;;15.57;;
40453;SDS011;26160;51.858;4.398;2023-01-28T19:24:05;21.07;;;16.00;;
40453;SDS011;26160;51.858;4.398;2023-01-28T19:26:35;23.08;;;15.63;;
40453;SDS011;26160;51.858;4.398;2023-01-28T19:29:04;21.90;;;16.17;;
40453;SDS011;26160;51.858;4.398;2023-01-28T19:31:35;20.60;;;15.13;;
40453;SDS011;26160;51.858;4.398;2023-01-28T19:34:04;20.70;;;16.17;;
40453;SDS011;26160;51.858;4.398;2023-01-28T19:36:32;22.00;;;16.40;;
40453;SDS011;26160;51.858;4.398;2023-01-28T19:39:00;24.27;;;16.97;;
40453;SDS011;26160;51.858;4.398;2023-01-28T19:41:29;27.23;;;16.93;;
40453;SDS011;26160;51.858;4.398;2023-01-28T19:43:56;25.50;;;17.20;;
40453;SDS011;26160;51.858;4.398;2023-01-28T19:46:23;22.77;;;16.50;;
40453;SDS011;26160;51.858;4.398;2023-01-28T19:48:50;23.33;;;17.40;;
40453;SDS011;26160;51.858;4.398;2023-01-28T19:51:18;23.13;;;16.73;;
40453;SDS011;26160;51.858;4.398;2023-01-28T19:53:44;23.63;;;16.30;;
40453;SDS011;26160;51.858;4.398;2023-01-28T19:56:15;24.33;;;17.63;;
40453;SDS011;26160;51.858;4.398;2023-01-28T19:58:44;24.20;;;17.43;;
40453;SDS011;26160;51.858;4.398;2023-01-28T20:01:12;22.30;;;17.00;;
40453;SDS011;26160;51.858;4.398;2023-01-28T20:03:43;23.27;;;17.85;;
40453;SDS011;26160;51.858;4.398;2023-01-28T20:06:11;24.63;;;18.00;;
40453;SDS011;26160;51.858;4.398;2023-01-28T20:08:39;22.17;;;16.97;;
40453;SDS011;26160;51.858;4.398;2023-01-28T20:11:07;24.63;;;17.20;;
40453;SDS011;26160;51.858;4.398;2023-01-28T20:13:34;24.73;;;17.70;;
40453;SDS011;26160;51.858;4.398;2023-01-28T20:16:05;24.23;;;18.23;;
40453;SDS011;26160;51.858;4.398;2023-01-28T20:18:32;22.50;;;17.40;;
40453;SDS011;26160;51.858;4.398;2023-01-28T20:20:59;25.10;;;17.53;;
40453;SDS011;26160;51.858;4.398;2023-01-28T20:23:25;23.70;;;17.50;;
40453;SDS011;26160;51.858;4.398;2023-01-28T20:25:52;24.83;;;17.80;;
40453;SDS011;26160;51.858;4.398;2023-01-28T20:28:23;25.33;;;17.10;;
40453;SDS011;26160;51.858;4.398;2023-01-28T20:30:53;23.77;;;17.60;;
40453;SDS011;26160;51.858;4.398;2023-01-28T20:33:22;23.73;;;17.70;;
40453;SDS011;26160;51.858;4.398;2023-01-28T20:35:52;25.37;;;17.57;;
40453;SDS011;26160;51.858;4.398;2023-01-28T20:38:26;24.30;;;17.73;;
40453;SDS011;26160;51.858;4.398;2023-01-28T20:40:52;25.23;;;17.63;;
40453;SDS011;26160;51.858;4.398;2023-01-28T20:43:19;23.70;;;17.37;;
40453;SDS011;26160;51.858;4.398;2023-01-28T20:45:45;26.47;;;18.33;;
40453;SDS011;26160;51.858;4.398;2023-01-28T20:48:11;25.33;;;17.83;;
40453;SDS011;26160;51.858;4.398;2023-01-28T20:50:37;26.17;;;18.40;;
40453;SDS011;26160;51.858;4.398;2023-01-28T20:53:07;32.03;;;18.43;;
40453;SDS011;26160;51.858;4.398;2023-01-28T20:55:33;30.07;;;20.93;;
40453;SDS011;26160;51.858;4.398;2023-01-28T20:57:59;29.23;;;18.70;;
40453;SDS011;26160;51.858;4.398;2023-01-28T21:00:25;28.47;;;19.13;;
40453;SDS011;26160;51.858;4.398;2023-01-28T21:02:52;29.43;;;20.13;;
40453;SDS011;26160;51.858;4.398;2023-01-28T21:05:18;28.07;;;20.40;;
40453;SDS011;26160;51.858;4.398;2023-01-28T21:07:45;26.73;;;18.37;;
40453;SDS011;26160;51.858;4.398;2023-01-28T21:10:11;31.93;;;19.03;;
40453;SDS011;26160;51.858;4.398;2023-01-28T21:12:37;28.50;;;19.10;;
40453;SDS011;26160;51.858;4.398;2023-01-28T21:15:04;26.30;;;18.73;;
40453;SDS011;26160;51.858;4.398;2023-01-28T21:17:32;24.07;;;18.23;;
40453;SDS011;26160;51.858;4.398;2023-01-28T21:19:58;27.87;;;19.10;;
40453;SDS011;26160;51.858;4.398;2023-01-28T21:22:24;28.50;;;19.47;;
40453;SDS011;26160;51.858;4.398;2023-01-28T21:24:50;26.37;;;19.60;;
40453;SDS011;26160;51.858;4.398;2023-01-28T21:27:17;28.00;;;19.03;;
40453;SDS011;26160;51.858;4.398;2023-01-28T21:29:43;26.43;;;19.00;;
40453;SDS011;26160;51.858;4.398;2023-01-28T21:32:09;35.37;;;19.80;;
40453;SDS011;26160;51.858;4.398;2023-01-28T21:34:35;26.00;;;18.90;;
40453;SDS011;26160;51.858;4.398;2023-01-28T21:37:01;30.93;;;20.03;;
40453;SDS011;26160;51.858;4.398;2023-01-28T21:39:28;28.20;;;20.80;;
40453;SDS011;26160;51.858;4.398;2023-01-28T21:41:54;34.27;;;20.50;;
40453;SDS011;26160;51.858;4.398;2023-01-28T21:44:20;30.63;;;20.40;;
40453;SDS011;26160;51.858;4.398;2023-01-28T21:46:47;29.63;;;20.90;;
40453;SDS011;26160;51.858;4.398;2023-01-28T21:49:13;31.20;;;20.27;;
40453;SDS011;26160;51.858;4.398;2023-01-28T21:51:39;30.97;;;20.73;;
40453;SDS011;26160;51.858;4.398;2023-01-28T21:54:16;30.02;;;20.30;;
40453;SDS011;26160;51.858;4.398;2023-01-28T21:56:44;29.87;;;21.10;;
40453;SDS011;26160;51.858;4.398;2023-01-28T21:59:14;30.73;;;20.73;;
40453;SDS011;26160;51.858;4.398;2023-01-28T22:04:25;28.53;;;19.80;;
40453;SDS011;26160;51.858;4.398;2023-01-28T22:06:53;29.43;;;20.53;;
40453;SDS011;26160;51.858;4.398;2023-01-28T22:09:20;26.57;;;19.10;;
40453;SDS011;26160;51.858;4.398;2023-01-28T22:11:47;29.47;;;20.90;;
40453;SDS011;26160;51.858;4.398;2023-01-28T22:14:13;30.40;;;20.10;;
40453;SDS011;26160;51.858;4.398;2023-01-28T22:16:39;30.83;;;20.40;;
40453;SDS011;26160;51.858;4.398;2023-01-28T22:19:06;32.20;;;20.73;;
40453;SDS011;26160;51.858;4.398;2023-01-28T22:21:32;28.30;;;19.17;;
40453;SDS011;26160;51.858;4.398;2023-01-28T22:26:39;31.17;;;19.60;;
40453;SDS011;26160;51.858;4.398;2023-01-28T22:29:06;28.10;;;19.67;;
40453;SDS011;26160;51.858;4.398;2023-01-28T22:31:32;31.57;;;21.23;;
40453;SDS011;26160;51.858;4.398;2023-01-28T22:33:59;31.20;;;21.07;;
40453;SDS011;26160;51.858;4.398;2023-01-28T22:36:25;28.17;;;20.70;;
40453;SDS011;26160;51.858;4.398;2023-01-28T22:38:53;30.03;;;19.80;;
40453;SDS011;26160;51.858;4.398;2023-01-28T22:41:19;29.43;;;20.63;;
40453;SDS011;26160;51.858;4.398;2023-01-28T22:46:20;33.73;;;21.30;;
40453;SDS011;26160;51.858;4.398;2023-01-28T22:48:47;27.93;;;20.10;;
40453;SDS011;26160;51.858;4.398;2023-01-28T22:51:15;30.20;;;21.10;;
40453;SDS011;26160;51.858;4.398;2023-01-28T22:53:43;29.77;;;21.27;;
40453;SDS011;26160;51.858;4.398;2023-01-28T22:56:10;26.93;;;19.20;;
40453;SDS011;26160;51.858;4.398;2023-01-28T22:58:37;30.30;;;20.40;;
40453;SDS011;26160;51.858;4.398;2023-01-28T23:01:03;27.67;;;20.77;;
40453;SDS011;26160;51.858;4.398;2023-01-28T23:03:30;31.00;;;20.00;;
40453;SDS011;26160;51.858;4.398;2023-01-28T23:05:57;28.20;;;20.07;;
40453;SDS011;26160;51.858;4.398;2023-01-28T23:08:24;29.23;;;19.57;;
40453;SDS011;26160;51.858;4.398;2023-01-28T23:10:51;31.40;;;21.20;;
40453;SDS011;26160;51.858;4.398;2023-01-28T23:13:22;30.23;;;20.80;;
40453;SDS011;26160;51.858;4.398;2023-01-28T23:15:50;30.00;;;20.90;;
40453;SDS011;26160;51.858;4.398;2023-01-28T23:18:35;31.90;;;20.13;;
40453;SDS011;26160;51.858;4.398;2023-01-28T23:21:21;26.53;;;19.20;;
40453;SDS011;26160;51.858;4.398;2023-01-28T23:24:11;28.13;;;19.80;;
40453;SDS011;26160;51.858;4.398;2023-01-28T23:27:06;30.30;;;20.17;;
40453;SDS011;26160;51.858;4.398;2023-01-28T23:29:33;26.07;;;18.47;;
40453;SDS011;26160;51.858;4.398;2023-01-28T23:32:07;27.00;;;18.77;;
40453;SDS011;26160;51.858;4.398;2023-01-28T23:34:38;28.27;;;19.63;;
40453;SDS011;26160;51.858;4.398;2023-01-28T23:37:07;28.53;;;19.00;;
40453;SDS011;26160;51.858;4.398;2023-01-28T23:39:34;23.07;;;17.37;;
40453;SDS011;26160;51.858;4.398;2023-01-28T23:42:07;27.33;;;18.87;;
40453;SDS011;26160;51.858;4.398;2023-01-28T23:44:34;26.87;;;18.90;;
40453;SDS011;26160;51.858;4.398;2023-01-28T23:47:00;23.27;;;17.47;;
40453;SDS011;26160;51.858;4.398;2023-01-28T23:49:26;24.53;;;18.53;;
40453;SDS011;26160;51.858;4.398;2023-01-28T23:51:53;24.67;;;17.30;;
40453;SDS011;26160;51.858;4.398;2023-01-28T23:54:19;28.30;;;17.73;;
40453;SDS011;26160;51.858;4.398;2023-01-28T23:56:45;25.83;;;17.73;;
40453;SDS011;26160;51.858;4.398;2023-01-28T23:59:11;28.87;;;18.83;;
